Terminal Aerodrome Forecast
Issued by NWS

Home | Current Version | Previous Version | Text Only | Print | Product List | Glossary On
Versions: 1 2 3 4 5 6 7 8 9 10 11 12 13 14 15 16 17 18 19 20 21
000
FTUS43 KAPX 242320
TAFTVC
TAF
KTVC 242320Z 2500/2524 33005KT 4SM -RASN BR OVC007
     FM250200 30011KT 2SM -SN OVC012
     FM250600 28013G22KT 5SM -DZ BR OVC018
     FM251300 25010G18KT P6SM OVC025=

USA.gov is the U.S. government's official web portal to all federal, state and local government web resources and services.